Sunday, September 23, 2018, 12:29 AM EDT
Back to Local

KPEO, Penn Yan Airport

Location: Penn Yan, NY, United States Lat: 42.65
Local Time: 12:29 AM EDT ( 4:29 GMT) Lon: -77.05
Time Zone: US/Eastern Elev: 977 ft

Show me the last for .
Show Decoded

2018-09-22 23:53 METAR KPEO 230353Z AUTO 00000KT 10SM CLR 09/08 A3025 RMK AO2 SLP247 T00890078 =
2018-09-22 22:53 METAR KPEO 230253Z AUTO 00000KT 10SM CLR 09/08 A3026 RMK AO2 SLP249 T00940083
                 50001 =
2018-09-22 21:53 METAR KPEO 230153Z AUTO 00000KT 10SM CLR 10/08 A3027 RMK AO2 SLP250 T01000083 =
2018-09-22 20:53 METAR KPEO 230053Z AUTO 00000KT 10SM CLR 10/08 A3027 RMK AO2 SLP250 T01000083 =
2018-09-22 19:53 METAR KPEO 222353Z AUTO 00000KT 10SM CLR 11/08 A3026 RMK AO2 SLP247 T01060083
                 10161 20106 53003 =
2018-09-22 18:53 METAR KPEO 222253Z AUTO 00000KT 10SM CLR 13/07 A3025 RMK AO2 SLP244 T01330072 =
2018-09-22 17:53 METAR KPEO 222153Z AUTO VRB03KT 10SM CLR 14/07 A3025 RMK AO2 SLP244 T01440072 =
2018-09-22 16:53 METAR KPEO 222053Z AUTO 28003KT 10SM CLR 15/07 A3025 RMK AO2 SLP242 T01500067
                 55003 =
2018-09-22 15:53 METAR KPEO 221953Z AUTO 33004KT 10SM SCT035 15/07 A3025 RMK AO2 SLP242 T01500072
                 =
2018-09-22 14:53 METAR KPEO 221853Z AUTO 00000KT 10SM SCT031 16/07 A3025 RMK AO2 SLP242 T01560072
                 =
2018-09-22 13:53 METAR KPEO 221753Z AUTO 34006KT 10SM FEW031 16/08 A3026 RMK AO2 SLP245 T01560078
                 10156 20122 58002 =
2018-09-22 12:53 METAR KPEO 221653Z AUTO 33009KT 10SM BKN032 15/07 A3028 RMK AO2 SLP250 T01500067
                 =
2018-09-22 12:37 METAR KPEO 221637Z AUTO 32008KT 10SM BKN030 14/07 A3028 RMK AO2 T01440072 =
2018-09-22 12:27 METAR KPEO 221627Z AUTO 32007KT 10SM BKN029 16/08 A3028 RMK AO2 T01560078 =
2018-09-22 11:53 METAR KPEO 221553Z AUTO VRB03KT 10SM OVC031 14/07 A3028 RMK AO2 SLP251 T01390072
                 =
2018-09-22 11:17 METAR KPEO 221517Z AUTO 34008KT 310V010 10SM OVC030 14/07 A3027 RMK AO2
                 T01390072 =
2018-09-22 10:53 METAR KPEO 221453Z AUTO VRB06KT 10SM OVC028 14/08 A3027 RMK AO2 SLP246 T01390078
                 52014 =
2018-09-22 09:53 METAR KPEO 221353Z AUTO 34006KT 10SM FEW019 OVC029 13/09 A3026 RMK AO2 SLP244
                 T01280089 =
2018-09-22 09:39 METAR KPEO 221339Z AUTO 34009KT 10SM SCT019 BKN027 OVC032 13/09 A3025 RMK AO2
                 T01280089 =
2018-09-22 08:53 METAR KPEO 221253Z AUTO 31008KT 10SM BKN035 13/09 A3023 RMK AO2 SLP235 T01280089
                 =
2018-09-22 07:53 METAR KPEO 221153Z AUTO 31007KT 10SM SCT022 OVC030 12/09 A3022 RMK AO2 SLP232
                 70052 T01220089 10189 20122 52031 =
2018-09-22 07:26 METAR KPEO 221126Z AUTO 32004KT 10SM BKN024 BKN041 13/08 A3022 RMK AO2 T01280083
                 =
2018-09-22 06:53 METAR KPEO 221053Z AUTO 29005KT 10SM BKN039 13/08 A3019 RMK AO2 SLP221 T01280078
                 =
2018-09-22 05:53 METAR KPEO 220953Z AUTO 31008KT 10SM SCT040 13/07 A3016 RMK AO2 SLP208 T01330072
                 =
2018-09-22 05:21 METAR KPEO 220921Z AUTO 31010G20KT 10SM FEW001 14/07 A3014 RMK AO2 T01390072 =
2018-09-22 04:53 METAR KPEO 220853Z AUTO 31007KT 10SM FEW037 14/08 A3013 RMK AO2 SLP198 T01390078
                 53037 =
2018-09-22 03:53 METAR KPEO 220753Z AUTO 30007G20KT 10SM CLR 16/09 A3009 RMK AO2 PK WND
                 31027/0720 SLP186 T01560094 =
2018-09-22 02:53 METAR KPEO 220653Z AUTO 30010G21KT 10SM SCT047 18/11 A3005 RMK AO2 SLP168
                 T01780106 =
2018-09-22 01:53 METAR KPEO 220553Z AUTO 28009G23KT 10SM CLR 19/12 A3002 RMK AO2 SLP158 60025
                 T01890117 10222 20189 53039 =
2018-09-22 00:53 METAR KPEO 220453Z AUTO 30008G18KT 10SM SCT046 BKN060 20/14 A2997 RMK AO2 SLP142
                 T02000139 402720200 =

Support USWX by starting your Amazon purchase here.